< < Back
Terminal Aerodrome Forecast


Current Version              Previous Versions:   1  2  3  4  5  6  7  8  9  

Terminal Aerodrome Forecast

187
FTUS42 KFFC 282336
TAFCSG
TAF
KCSG 282336Z 2900/2924 32008KT P6SM FEW060
     FM290200 35004KT P6SM SCT120
     FM291500 31006KT P6SM SCT050 PROB30 2920/2924 6SM -TSRA
      BKN050CB=



Latest METAR

977
SAUS70 KWBC 290500
MTRCSG
METAR KCSG 290451Z AUTO 27003KT 10SM OVC100 27/23 A2999 RMK AO2 SLP148
T02670233 403610239


USA.gov is the U.S. government's official web portal to all federal, state and local government web resources and services.